Time;durP1;ratioP1;P1;durP2;ratioP2;P2;SDS_P1;SDS_P2;PMS_P1;PMS_P2;Temp;Humidity;BMP_temperature;BMP_pressure;BME280_temperature;BME280_humidity;BME280_pressure;Samples;Min_cycle;Max_cycle;Signal;HPM_P1;HPM_P2
2022/01/29 00:00:25;;;;;;;47.67;18.73;;;;;;;;;;5039430;28;20057;-85
2022/01/29 00:02:51;;;;;;;52.85;19.27;;;;;;;;;;5038678;28;20026;-87
2022/01/29 00:05:17;;;;;;;50.75;18.98;;;;;;;;;;5021665;28;20021;-87
2022/01/29 00:07:43;;;;;;;49.95;19.83;;;;;;;;;;5022422;28;20036;-86
2022/01/29 00:10:10;;;;;;;56.40;19.67;;;;;;;;;;5022025;28;20126;-86
2022/01/29 00:12:36;;;;;;;49.92;18.15;;;;;;;;;;5040083;28;20765;-84
2022/01/29 00:15:02;;;;;;;52.22;18.48;;;;;;;;;;5023928;28;20025;-85
2022/01/29 00:17:28;;;;;;;48.55;18.50;;;;;;;;;;5016293;28;20032;-86
2022/01/29 00:19:54;;;;;;;52.00;19.42;;;;;;;;;;5039720;28;20032;-85
2022/01/29 00:22:20;;;;;;;57.28;20.30;;;;;;;;;;5068086;28;20048;-85
2022/01/29 00:24:46;;;;;;;48.72;18.95;;;;;;;;;;5041062;28;20025;-88
2022/01/29 00:27:12;;;;;;;56.70;19.63;;;;;;;;;;5057440;28;20089;-85
2022/01/29 00:29:40;;;;;;;46.47;18.67;;;;;;;;;;5040923;28;20555;-86
2022/01/29 00:32:07;;;;;;;63.38;20.88;;;;;;;;;;5058129;28;20030;-84
2022/01/29 00:34:33;;;;;;;47.97;19.55;;;;;;;;;;5058593;28;20019;-86
2022/01/29 00:36:59;;;;;;;65.60;20.60;;;;;;;;;;5040790;28;20037;-85
2022/01/29 00:39:26;;;;;;;65.50;21.35;;;;;;;;;;5058784;28;20006;-86
2022/01/29 00:41:52;;;;;;;63.40;20.40;;;;;;;;;;5040962;28;20021;-86
2022/01/29 00:44:18;;;;;;;52.88;18.90;;;;;;;;;;5041090;28;20014;-88
2022/01/29 00:46:44;;;;;;;70.68;22.10;;;;;;;;;;5041652;28;20100;-87
2022/01/29 00:49:11;;;;;;;59.78;18.58;;;;;;;;;;5041696;28;20040;-88
2022/01/29 00:51:37;;;;;;;60.28;20.80;;;;;;;;;;5058829;28;20081;-87
2022/01/29 00:56:39;;;;;;;69.43;20.52;;;;;;;;;;5140482;22;20043;-86
2022/01/29 00:59:26;;;;;;;56.53;20.13;;;;;;;;;;5136230;27;20355;-87
2022/01/29 01:01:52;;;;;;;58.60;18.98;;;;;;;;;;5135106;28;20046;-86
2022/01/29 01:04:18;;;;;;;56.90;19.08;;;;;;;;;;5135855;28;20031;-87
2022/01/29 01:06:44;;;;;;;54.45;19.77;;;;;;;;;;5118656;28;20399;-87
2022/01/29 01:09:10;;;;;;;63.20;20.15;;;;;;;;;;5121235;28;20016;-88
2022/01/29 01:11:36;;;;;;;59.20;21.75;;;;;;;;;;5135726;28;20075;-87
2022/01/29 01:14:02;;;;;;;58.67;20.58;;;;;;;;;;5135345;28;20038;-86
2022/01/29 01:16:28;;;;;;;66.20;21.17;;;;;;;;;;5124314;28;20036;-85
2022/01/29 01:18:54;;;;;;;70.40;21.52;;;;;;;;;;5114007;28;20050;-86
2022/01/29 01:21:20;;;;;;;54.65;20.17;;;;;;;;;;5114943;28;20032;-86
2022/01/29 01:23:46;;;;;;;55.67;20.27;;;;;;;;;;5113191;28;20028;-85
2022/01/29 01:26:12;;;;;;;57.13;20.13;;;;;;;;;;5116944;28;20467;-86
2022/01/29 01:28:38;;;;;;;52.33;19.52;;;;;;;;;;5130411;28;20119;-86
2022/01/29 01:31:05;;;;;;;53.75;20.25;;;;;;;;;;5136039;28;20047;-86
2022/01/29 01:33:30;;;;;;;65.57;21.73;;;;;;;;;;5136156;28;20031;-86
2022/01/29 01:36:01;;;;;;;58.10;20.88;;;;;;;;;;5136700;28;20077;-86
2022/01/29 01:38:36;;;;;;;63.83;22.88;;;;;;;;;;5135415;28;20364;-87
2022/01/29 01:41:07;;;;;;;73.38;20.50;;;;;;;;;;5092696;28;20028;-86
2022/01/29 01:43:33;;;;;;;68.00;21.67;;;;;;;;;;5090945;28;20021;-86
2022/01/29 01:45:59;;;;;;;63.40;21.77;;;;;;;;;;5090779;28;20036;-86
2022/01/29 01:48:25;;;;;;;59.28;19.88;;;;;;;;;;5092459;28;20028;-86
2022/01/29 01:50:51;;;;;;;64.65;21.67;;;;;;;;;;5091367;28;20476;-87
2022/01/29 01:53:17;;;;;;;52.97;20.33;;;;;;;;;;5091627;28;20040;-86
2022/01/29 01:55:43;;;;;;;66.25;21.77;;;;;;;;;;5089910;28;20031;-86
2022/01/29 01:58:09;;;;;;;63.97;22.05;;;;;;;;;;5088948;28;20073;-86
2022/01/29 02:00:36;;;;;;;73.50;22.63;;;;;;;;;;5091064;28;20104;-86
2022/01/29 02:03:01;;;;;;;73.35;20.80;;;;;;;;;;5109639;28;20024;-86
2022/01/29 02:05:27;;;;;;;66.20;20.23;;;;;;;;;;5115373;28;20042;-87
2022/01/29 02:07:54;;;;;;;73.53;20.45;;;;;;;;;;5114492;28;20028;-85
2022/01/29 02:10:20;;;;;;;78.65;20.70;;;;;;;;;;5101430;28;20488;-87
2022/01/29 02:12:46;;;;;;;57.78;20.70;;;;;;;;;;5099760;28;20474;-86
2022/01/29 02:15:14;;;;;;;76.35;20.95;;;;;;;;;;5099267;28;20381;-85
2022/01/29 02:17:40;;;;;;;61.63;19.50;;;;;;;;;;5118451;28;20095;-85
2022/01/29 02:20:07;;;;;;;66.32;20.98;;;;;;;;;;5121986;28;20077;-85
2022/01/29 02:22:33;;;;;;;66.75;18.77;;;;;;;;;;5129452;28;20058;-85
2022/01/29 02:24:59;;;;;;;72.18;18.42;;;;;;;;;;5122551;28;20023;-85
2022/01/29 02:27:25;;;;;;;71.70;19.27;;;;;;;;;;5117880;28;20181;-85
2022/01/29 02:29:51;;;;;;;78.90;18.38;;;;;;;;;;5101055;28;20028;-85
2022/01/29 02:32:17;;;;;;;76.35;19.40;;;;;;;;;;5101287;28;20112;-85
2022/01/29 02:34:44;;;;;;;48.28;16.35;;;;;;;;;;5100011;28;20475;-85
2022/01/29 02:37:10;;;;;;;50.53;17.08;;;;;;;;;;5098913;28;20650;-84
2022/01/29 02:39:36;;;;;;;48.95;17.92;;;;;;;;;;5098862;28;20028;-85
2022/01/29 02:42:03;;;;;;;54.15;18.75;;;;;;;;;;5100243;28;20024;-84
2022/01/29 02:44:30;;;;;;;50.10;15.93;;;;;;;;;;5098577;28;20024;-86
2022/01/29 02:47:13;;;;;;;55.55;17.20;;;;;;;;;;5101032;28;20028;-85
2022/01/29 02:49:39;;;;;;;52.03;16.20;;;;;;;;;;5100534;28;20021;-85
2022/01/29 02:52:05;;;;;;;46.17;15.18;;;;;;;;;;5099283;28;20024;-85
2022/01/29 02:54:34;;;;;;;54.25;16.80;;;;;;;;;;5100651;28;20059;-85
2022/01/29 02:57:00;;;;;;;62.15;17.67;;;;;;;;;;5100039;28;20028;-83
2022/01/29 02:59:26;;;;;;;45.75;15.00;;;;;;;;;;5100998;28;20028;-85
2022/01/29 03:01:52;;;;;;;51.83;15.63;;;;;;;;;;5100486;28;20028;-85
2022/01/29 03:04:18;;;;;;;57.63;16.17;;;;;;;;;;5099191;28;20024;-85
2022/01/29 03:06:44;;;;;;;45.75;15.57;;;;;;;;;;5100665;28;20024;-85
2022/01/29 03:09:10;;;;;;;45.65;14.43;;;;;;;;;;5100386;28;20430;-84
2022/01/29 03:11:36;;;;;;;45.42;15.50;;;;;;;;;;5099378;28;20050;-84
2022/01/29 03:14:02;;;;;;;46.63;15.25;;;;;;;;;;5100842;28;20032;-86
2022/01/29 03:16:28;;;;;;;41.83;13.93;;;;;;;;;;5109984;28;20075;-86
2022/01/29 03:18:54;;;;;;;44.40;14.90;;;;;;;;;;5121162;28;20058;-85
2022/01/29 03:21:20;;;;;;;41.30;14.13;;;;;;;;;;5117599;28;20083;-85
2022/01/29 03:23:46;;;;;;;44.38;12.98;;;;;;;;;;5119841;28;20058;-85
2022/01/29 03:26:12;;;;;;;43.83;13.20;;;;;;;;;;5120170;28;20045;-85
2022/01/29 03:28:38;;;;;;;42.72;14.65;;;;;;;;;;5106225;28;20103;-85
2022/01/29 03:31:04;;;;;;;43.38;13.25;;;;;;;;;;5113311;28;20421;-82
2022/01/29 03:33:30;;;;;;;52.75;15.43;;;;;;;;;;5116602;28;20444;-83
2022/01/29 03:35:56;;;;;;;42.85;14.00;;;;;;;;;;5117397;28;20023;-85
2022/01/29 03:38:23;;;;;;;37.67;13.57;;;;;;;;;;5116620;28;20036;-86
2022/01/29 03:40:50;;;;;;;40.80;14.80;;;;;;;;;;5110771;28;20016;-87
2022/01/29 03:43:25;;;;;;;35.90;13.45;;;;;;;;;;5103148;28;20510;-86
2022/01/29 03:45:51;;;;;;;35.13;12.05;;;;;;;;;;5107148;28;20537;-85
2022/01/29 03:48:17;;;;;;;38.40;12.35;;;;;;;;;;5106404;28;20051;-87
2022/01/29 03:50:43;;;;;;;41.03;13.43;;;;;;;;;;5101231;28;20031;-85
2022/01/29 03:53:09;;;;;;;34.08;11.75;;;;;;;;;;5100470;28;20372;-87
2022/01/29 03:55:35;;;;;;;35.67;12.25;;;;;;;;;;5100802;28;20091;-88
2022/01/29 03:58:01;;;;;;;36.53;11.55;;;;;;;;;;5099698;28;20489;-87
2022/01/29 04:00:27;;;;;;;37.25;12.57;;;;;;;;;;5100035;28;20034;-87
2022/01/29 04:02:53;;;;;;;33.95;12.10;;;;;;;;;;5100325;28;20020;-87
2022/01/29 04:05:19;;;;;;;30.75;10.50;;;;;;;;;;5101440;28;20020;-87
2022/01/29 04:07:45;;;;;;;35.75;11.57;;;;;;;;;;5100652;28;20029;-87
2022/01/29 04:10:12;;;;;;;33.80;10.55;;;;;;;;;;5098023;28;20046;-84
2022/01/29 04:12:44;;;;;;;32.47;11.07;;;;;;;;;;5098111;28;20028;-85
2022/01/29 04:15:10;;;;;;;36.92;11.18;;;;;;;;;;5096920;28;20028;-84
2022/01/29 04:17:36;;;;;;;28.80;11.23;;;;;;;;;;5116832;28;20091;-85
2022/01/29 04:20:03;;;;;;;35.00;11.35;;;;;;;;;;5125050;28;20068;-84
2022/01/29 04:22:29;;;;;;;30.48;10.57;;;;;;;;;;5117810;28;20527;-85
2022/01/29 04:24:55;;;;;;;31.23;11.07;;;;;;;;;;5118801;28;20024;-84
2022/01/29 04:27:31;;;;;;;26.48;11.02;;;;;;;;;;5105406;28;20027;-85
2022/01/29 04:30:00;;;;;;;28.30;10.27;;;;;;;;;;5117757;28;20474;-83
2022/01/29 04:35:12;;;;;;;32.78;10.82;;;;;;;;;;5075263;28;20032;-85
2022/01/29 04:37:38;;;;;;;28.63;9.80;;;;;;;;;;5094961;28;20040;-85
2022/01/29 04:40:05;;;;;;;34.97;11.40;;;;;;;;;;5095536;28;20024;-84
2022/01/29 04:42:30;;;;;;;32.85;11.55;;;;;;;;;;5095325;28;20070;-85
2022/01/29 04:44:56;;;;;;;33.70;11.07;;;;;;;;;;5097174;28;20028;-83
2022/01/29 04:47:22;;;;;;;33.72;11.45;;;;;;;;;;5096906;28;20079;-86
2022/01/29 04:49:48;;;;;;;29.33;10.73;;;;;;;;;;5094623;28;20027;-84
2022/01/29 04:52:14;;;;;;;33.22;11.68;;;;;;;;;;5095079;28;20050;-86
2022/01/29 04:54:40;;;;;;;29.67;11.02;;;;;;;;;;5095833;28;20089;-85
2022/01/29 04:57:07;;;;;;;27.58;11.02;;;;;;;;;;5095832;28;20369;-84
2022/01/29 04:59:32;;;;;;;28.83;10.38;;;;;;;;;;5096198;28;20032;-86
2022/01/29 05:01:58;;;;;;;28.92;9.90;;;;;;;;;;5096131;28;20052;-86
2022/01/29 05:04:24;;;;;;;29.58;11.15;;;;;;;;;;5095892;28;20076;-83
2022/01/29 05:06:51;;;;;;;36.95;11.43;;;;;;;;;;5095960;28;20020;-85
2022/01/29 05:09:17;;;;;;;27.17;10.57;;;;;;;;;;5094299;28;20032;-86
2022/01/29 05:11:47;;;;;;;34.10;11.40;;;;;;;;;;5094298;28;20034;-84
2022/01/29 05:14:23;;;;;;;37.83;12.30;;;;;;;;;;5094950;28;20050;-85
2022/01/29 05:27:47;;;;;;;38.67;14.43;;;;;;;;;;5034412;28;20127;-85
2022/01/29 05:30:13;;;;;;;39.00;13.93;;;;;;;;;;5013241;28;20433;-85
2022/01/29 05:32:39;;;;;;;47.97;14.38;;;;;;;;;;4997043;28;20030;-85
2022/01/29 05:35:05;;;;;;;40.75;13.80;;;;;;;;;;5014981;28;20072;-84
2022/01/29 05:37:31;;;;;;;41.67;14.88;;;;;;;;;;5024766;28;20025;-85
2022/01/29 05:39:57;;;;;;;42.35;15.07;;;;;;;;;;5033577;28;20152;-85
2022/01/29 05:42:23;;;;;;;48.72;16.15;;;;;;;;;;5035736;28;20033;-86
2022/01/29 05:44:49;;;;;;;35.33;14.85;;;;;;;;;;5036109;28;20026;-85
2022/01/29 05:47:15;;;;;;;45.10;15.77;;;;;;;;;;5039961;28;20466;-85
2022/01/29 05:49:41;;;;;;;43.03;14.73;;;;;;;;;;5035960;28;20036;-86
2022/01/29 05:52:07;;;;;;;42.20;15.27;;;;;;;;;;5038669;28;20375;-85
2022/01/29 05:54:33;;;;;;;42.33;15.50;;;;;;;;;;5029723;28;20021;-85
2022/01/29 05:56:59;;;;;;;41.92;15.32;;;;;;;;;;5020056;28;20426;-85
2022/01/29 05:59:25;;;;;;;46.63;15.57;;;;;;;;;;5037630;28;20033;-85
2022/01/29 06:01:51;;;;;;;47.83;16.08;;;;;;;;;;5028438;28;20030;-85
2022/01/29 06:04:17;;;;;;;43.45;15.70;;;;;;;;;;5038324;28;20048;-84
2022/01/29 06:06:43;;;;;;;43.20;15.60;;;;;;;;;;5046828;28;20083;-84
2022/01/29 06:09:09;;;;;;;45.08;17.90;;;;;;;;;;5028611;28;20033;-84
2022/01/29 06:11:35;;;;;;;38.00;15.38;;;;;;;;;;5040630;28;20512;-85
2022/01/29 06:14:01;;;;;;;41.40;15.77;;;;;;;;;;5039173;28;20025;-85
2022/01/29 06:16:27;;;;;;;45.58;16.27;;;;;;;;;;5029521;28;20030;-85
2022/01/29 06:18:53;;;;;;;38.67;13.88;;;;;;;;;;5018800;28;20113;-85
2022/01/29 06:21:19;;;;;;;41.70;15.68;;;;;;;;;;5018950;28;20107;-85
2022/01/29 06:23:45;;;;;;;49.00;15.05;;;;;;;;;;5002292;28;20468;-86
2022/01/29 06:26:12;;;;;;;38.42;14.77;;;;;;;;;;5019204;28;20119;-85
2022/01/29 06:28:39;;;;;;;46.58;15.77;;;;;;;;;;5011126;28;20040;-85
2022/01/29 06:31:05;;;;;;;36.35;14.98;;;;;;;;;;5021446;28;20029;-85
2022/01/29 06:33:31;;;;;;;46.22;15.93;;;;;;;;;;5021607;28;20057;-85
2022/01/29 06:35:58;;;;;;;44.42;15.90;;;;;;;;;;5037136;28;20052;-85
2022/01/29 06:38:24;;;;;;;47.10;15.48;;;;;;;;;;5045447;28;20168;-87
2022/01/29 06:40:50;;;;;;;45.00;16.48;;;;;;;;;;5039311;28;20029;-86
2022/01/29 06:43:16;;;;;;;38.78;14.23;;;;;;;;;;5037736;28;20032;-86
2022/01/29 06:45:44;;;;;;;45.38;16.45;;;;;;;;;;5041744;28;20036;-86
2022/01/29 06:48:12;;;;;;;47.13;15.57;;;;;;;;;;5039500;28;20030;-86
2022/01/29 06:50:38;;;;;;;44.05;16.67;;;;;;;;;;5021804;28;20101;-86
2022/01/29 06:53:05;;;;;;;43.65;16.42;;;;;;;;;;5041562;28;20026;-86
2022/01/29 06:55:31;;;;;;;41.45;15.98;;;;;;;;;;5042559;28;20041;-86
2022/01/29 06:57:57;;;;;;;47.40;17.70;;;;;;;;;;5023620;28;20098;-87
2022/01/29 07:00:23;;;;;;;37.67;14.90;;;;;;;;;;5023854;28;20039;-86
2022/01/29 07:02:49;;;;;;;45.65;15.10;;;;;;;;;;5048422;28;20075;-86
2022/01/29 07:05:15;;;;;;;46.20;16.75;;;;;;;;;;5059045;28;20057;-86
2022/01/29 07:07:41;;;;;;;43.35;15.05;;;;;;;;;;5059025;28;20037;-86
2022/01/29 07:10:09;;;;;;;40.78;15.38;;;;;;;;;;5059021;28;20024;-86
2022/01/29 07:12:37;;;;;;;39.45;15.43;;;;;;;;;;5058971;28;20069;-87
2022/01/29 07:15:03;;;;;;;35.45;14.98;;;;;;;;;;5058944;28;20028;-86
2022/01/29 07:17:29;;;;;;;41.10;15.02;;;;;;;;;;5043971;28;20033;-86
2022/01/29 07:19:55;;;;;;;41.05;15.30;;;;;;;;;;5059339;28;20018;-87
2022/01/29 07:22:21;;;;;;;38.05;14.40;;;;;;;;;;5059201;28;20026;-87
2022/01/29 07:24:48;;;;;;;33.75;12.90;;;;;;;;;;5058924;28;20022;-86
2022/01/29 07:27:14;;;;;;;32.55;14.10;;;;;;;;;;5041628;28;20014;-87
2022/01/29 07:29:40;;;;;;;37.50;13.77;;;;;;;;;;5059064;28;20029;-86
2022/01/29 07:32:06;;;;;;;34.25;12.82;;;;;;;;;;5059049;28;20033;-87
2022/01/29 07:34:33;;;;;;;31.83;12.02;;;;;;;;;;5041852;28;20056;-87
2022/01/29 07:36:59;;;;;;;33.90;12.38;;;;;;;;;;5058127;28;20013;-86
2022/01/29 07:39:25;;;;;;;30.67;11.40;;;;;;;;;;5056568;28;20067;-85
2022/01/29 07:41:52;;;;;;;29.25;12.63;;;;;;;;;;5039626;28;20044;-86
2022/01/29 07:44:19;;;;;;;27.70;11.80;;;;;;;;;;5040622;28;20010;-85
2022/01/29 07:46:45;;;;;;;30.15;13.00;;;;;;;;;;5058936;28;20045;-86
2022/01/29 07:49:11;;;;;;;29.42;13.02;;;;;;;;;;5058904;28;20012;-86
2022/01/29 07:51:37;;;;;;;28.40;10.55;;;;;;;;;;5058318;28;20025;-86
2022/01/29 07:54:04;;;;;;;28.90;11.90;;;;;;;;;;5041267;28;20116;-85
2022/01/29 07:56:30;;;;;;;27.45;11.50;;;;;;;;;;5056932;28;20036;-87
2022/01/29 07:58:56;;;;;;;27.35;10.38;;;;;;;;;;5049416;28;20041;-86
2022/01/29 08:01:22;;;;;;;26.48;10.40;;;;;;;;;;5052192;28;20017;-87
2022/01/29 08:03:50;;;;;;;29.00;10.55;;;;;;;;;;5056406;28;20068;-84
2022/01/29 08:06:17;;;;;;;26.65;11.00;;;;;;;;;;5038828;28;20001;-84
2022/01/29 08:08:44;;;;;;;27.27;11.90;;;;;;;;;;5045251;28;20014;-85
2022/01/29 08:11:11;;;;;;;26.65;11.85;;;;;;;;;;5029203;28;20081;-86
2022/01/29 08:13:37;;;;;;;23.38;10.07;;;;;;;;;;5039505;28;20041;-85
2022/01/29 08:16:03;;;;;;;25.67;10.77;;;;;;;;;;5021721;28;20013;-86
2022/01/29 08:18:30;;;;;;;32.03;10.85;;;;;;;;;;5021376;28;20029;-88
2022/01/29 08:20:56;;;;;;;19.83;10.57;;;;;;;;;;5039962;28;20045;-86
2022/01/29 08:23:22;;;;;;;25.25;10.70;;;;;;;;;;5056075;28;20014;-86
2022/01/29 08:25:48;;;;;;;25.70;9.75;;;;;;;;;;5055821;28;20036;-86
2022/01/29 08:28:14;;;;;;;26.98;10.98;;;;;;;;;;5058137;28;20044;-86
2022/01/29 08:30:41;;;;;;;24.77;9.45;;;;;;;;;;5040448;28;20013;-86
2022/01/29 08:33:08;;;;;;;20.40;9.32;;;;;;;;;;5058062;28;20021;-87
2022/01/29 08:35:34;;;;;;;20.45;9.93;;;;;;;;;;5058275;28;20013;-87
2022/01/29 08:38:00;;;;;;;21.02;8.75;;;;;;;;;;5048619;28;20026;-85
2022/01/29 08:40:27;;;;;;;25.35;10.15;;;;;;;;;;5028794;28;20006;-87
2022/01/29 08:42:53;;;;;;;23.83;10.35;;;;;;;;;;5048868;28;20009;-85
2022/01/29 08:45:19;;;;;;;17.42;8.20;;;;;;;;;;5036716;28;20013;-86
2022/01/29 08:47:45;;;;;;;22.33;9.25;;;;;;;;;;5055760;28;20044;-84
2022/01/29 08:50:12;;;;;;;20.88;9.05;;;;;;;;;;5054971;28;20020;-86
2022/01/29 08:52:38;;;;;;;19.55;9.15;;;;;;;;;;5046440;28;20022;-85
2022/01/29 08:55:06;;;;;;;19.23;8.27;;;;;;;;;;5040236;28;20019;-86
2022/01/29 08:57:32;;;;;;;18.13;7.90;;;;;;;;;;5028119;28;20101;-86
2022/01/29 08:59:59;;;;;;;17.95;8.32;;;;;;;;;;5033760;28;20009;-87
2022/01/29 09:02:26;;;;;;;17.40;8.60;;;;;;;;;;5038299;28;20060;-86
2022/01/29 09:04:52;;;;;;;21.45;8.23;;;;;;;;;;5052762;28;20029;-86
2022/01/29 09:07:18;;;;;;;17.88;6.80;;;;;;;;;;5040680;28;20018;-85
2022/01/29 09:09:45;;;;;;;17.70;6.93;;;;;;;;;;5052400;28;20025;-87
2022/01/29 09:12:12;;;;;;;13.27;6.78;;;;;;;;;;5045518;28;20018;-86
2022/01/29 09:14:38;;;;;;;14.77;6.25;;;;;;;;;;5051515;28;20025;-86
2022/01/29 09:17:04;;;;;;;13.55;6.38;;;;;;;;;;5042595;28;20037;-85
2022/01/29 09:19:30;;;;;;;16.42;7.05;;;;;;;;;;5056129;28;20038;-88
2022/01/29 09:21:56;;;;;;;15.63;7.57;;;;;;;;;;5042263;28;21148;-87
2022/01/29 09:24:22;;;;;;;14.23;6.68;;;;;;;;;;5047147;28;20017;-86
2022/01/29 09:26:48;;;;;;;18.52;7.40;;;;;;;;;;5044788;28;20018;-88
2022/01/29 09:29:14;;;;;;;11.07;6.20;;;;;;;;;;5039588;28;20032;-85
2022/01/29 09:31:40;;;;;;;13.48;6.43;;;;;;;;;;5050774;28;20070;-86
2022/01/29 09:34:06;;;;;;;12.65;5.97;;;;;;;;;;5039437;28;20057;-87
2022/01/29 09:36:32;;;;;;;11.32;5.80;;;;;;;;;;5046548;28;20013;-87
2022/01/29 09:38:58;;;;;;;17.02;6.78;;;;;;;;;;5051675;28;20040;-86
2022/01/29 09:41:26;;;;;;;11.10;6.00;;;;;;;;;;5047837;28;20010;-85
2022/01/29 09:43:53;;;;;;;15.13;6.35;;;;;;;;;;5053155;28;20060;-85
2022/01/29 09:46:19;;;;;;;12.02;5.93;;;;;;;;;;5046767;28;20010;-85
2022/01/29 09:48:45;;;;;;;12.35;5.03;;;;;;;;;;5029207;28;20030;-86
2022/01/29 09:51:14;;;;;;;12.85;5.60;;;;;;;;;;5048327;28;20030;-86
2022/01/29 09:53:44;;;;;;;17.80;6.30;;;;;;;;;;5052089;28;20010;-86
2022/01/29 09:56:10;;;;;;;10.15;5.88;;;;;;;;;;5034548;28;20041;-86
2022/01/29 09:58:37;;;;;;;12.20;5.88;;;;;;;;;;5052798;28;20033;-86
2022/01/29 10:01:03;;;;;;;11.85;5.10;;;;;;;;;;5046246;28;20014;-85
2022/01/29 10:03:29;;;;;;;12.10;5.13;;;;;;;;;;5049423;28;20096;-85
2022/01/29 10:06:00;;;;;;;12.73;5.45;;;;;;;;;;5042377;28;20014;-85
2022/01/29 10:08:27;;;;;;;10.20;4.97;;;;;;;;;;5060483;28;20056;-85
2022/01/29 10:11:00;;;;;;;10.77;4.95;;;;;;;;;;5040427;28;20033;-86
2022/01/29 10:13:29;;;;;;;13.43;6.35;;;;;;;;;;5046625;28;20033;-86
2022/01/29 10:16:12;;;;;;;12.57;5.05;;;;;;;;;;5058386;28;20025;-85
2022/01/29 10:18:39;;;;;;;11.25;4.88;;;;;;;;;;5041423;28;20038;-84
2022/01/29 10:21:14;;;;;;;11.95;5.10;;;;;;;;;;5055096;28;20084;-84
2022/01/29 10:23:41;;;;;;;11.13;5.45;;;;;;;;;;5050928;28;20045;-83
2022/01/29 10:26:09;;;;;;;10.60;6.13;;;;;;;;;;5055608;28;20020;-86
2022/01/29 10:28:35;;;;;;;14.55;5.53;;;;;;;;;;5049175;28;20111;-85
2022/01/29 10:31:03;;;;;;;9.68;5.18;;;;;;;;;;5038842;28;20013;-85
2022/01/29 10:33:37;;;;;;;10.55;5.28;;;;;;;;;;5039950;28;20014;-84
2022/01/29 10:36:07;;;;;;;11.95;5.40;;;;;;;;;;5050685;28;20047;-84
2022/01/29 10:38:49;;;;;;;13.27;5.90;;;;;;;;;;5036664;28;20052;-85
2022/01/29 10:41:17;;;;;;;10.95;5.28;;;;;;;;;;5022820;28;20081;-87
2022/01/29 10:44:10;;;;;;;9.15;4.72;;;;;;;;;;5040002;28;20029;-87
2022/01/29 10:46:38;;;;;;;11.77;4.88;;;;;;;;;;5039947;28;20044;-87
2022/01/29 10:49:05;;;;;;;9.52;4.65;;;;;;;;;;5039209;28;20077;-87
2022/01/29 10:51:33;;;;;;;8.77;4.53;;;;;;;;;;5039416;28;20025;-89
2022/01/29 10:54:19;;;;;;;11.10;5.03;;;;;;;;;;5028385;28;20026;-87
2022/01/29 10:56:54;;;;;;;9.48;4.57;;;;;;;;;;5035729;28;20021;-87
2022/01/29 10:59:21;;;;;;;11.57;5.10;;;;;;;;;;5022186;28;20034;-87
2022/01/29 11:01:55;;;;;;;9.43;4.90;;;;;;;;;;5034342;28;20010;-87
2022/01/29 11:04:21;;;;;;;9.60;4.90;;;;;;;;;;5058887;28;20056;-88
2022/01/29 11:06:48;;;;;;;8.00;4.40;;;;;;;;;;5059166;28;20033;-85
2022/01/29 11:09:14;;;;;;;10.52;5.15;;;;;;;;;;5058380;28;20017;-85
2022/01/29 11:11:41;;;;;;;12.40;5.45;;;;;;;;;;5041227;28;20028;-85
2022/01/29 11:14:08;;;;;;;10.68;4.97;;;;;;;;;;5058679;28;20029;-85
2022/01/29 11:16:35;;;;;;;11.18;4.80;;;;;;;;;;5048523;28;20038;-87
2022/01/29 11:19:01;;;;;;;10.02;4.97;;;;;;;;;;5021631;28;20033;-88
2022/01/29 11:21:28;;;;;;;9.43;4.82;;;;;;;;;;5061026;23;20056;-85
2022/01/29 11:23:54;;;;;;;8.27;4.30;;;;;;;;;;5056542;28;20064;-82
2022/01/29 11:26:21;;;;;;;7.00;4.45;;;;;;;;;;5037575;28;20078;-84
2022/01/29 11:28:46;;;;;;;6.82;4.10;;;;;;;;;;5056090;28;20081;-85
2022/01/29 11:31:15;;;;;;;10.82;5.03;;;;;;;;;;5055662;28;20435;-83
2022/01/29 11:33:59;;;;;;;8.50;4.75;;;;;;;;;;5056310;28;20099;-87
2022/01/29 11:36:44;;;;;;;6.43;3.60;;;;;;;;;;5042464;28;20396;-85
2022/01/29 11:39:22;;;;;;;8.45;4.30;;;;;;;;;;5018429;28;20037;-82
2022/01/29 11:42:07;;;;;;;8.32;4.55;;;;;;;;;;5034786;28;20049;-87
2022/01/29 11:44:33;;;;;;;10.98;4.05;;;;;;;;;;5036304;28;20026;-83
2022/01/29 11:47:19;;;;;;;7.93;3.83;;;;;;;;;;5038036;28;20070;-83
2022/01/29 11:49:45;;;;;;;7.45;4.50;;;;;;;;;;5037361;28;20059;-84
2022/01/29 11:52:21;;;;;;;7.25;4.10;;;;;;;;;;5036487;28;20021;-85
2022/01/29 11:55:01;;;;;;;6.97;3.78;;;;;;;;;;5038679;28;20024;-86
2022/01/29 11:57:28;;;;;;;7.82;4.32;;;;;;;;;;5055790;28;20638;-82
2022/01/29 11:59:54;;;;;;;8.93;4.50;;;;;;;;;;5057108;28;20021;-84
2022/01/29 12:02:20;;;;;;;7.22;3.25;;;;;;;;;;5037662;28;20047;-85
2022/01/29 12:04:53;;;;;;;9.07;4.03;;;;;;;;;;5036673;28;20021;-83
2022/01/29 12:07:26;;;;;;;7.13;4.00;;;;;;;;;;5036179;28;20017;-83
2022/01/29 12:10:05;;;;;;;8.60;4.45;;;;;;;;;;5019225;28;20025;-84
2022/01/29 12:12:33;;;;;;;7.53;4.00;;;;;;;;;;5019449;28;20075;-84
2022/01/29 12:15:12;;;;;;;6.28;3.97;;;;;;;;;;5036971;28;20025;-87
2022/01/29 12:17:51;;;;;;;7.00;3.90;;;;;;;;;;5036448;28;20111;-85
2022/01/29 12:20:18;;;;;;;7.85;3.40;;;;;;;;;;5037615;28;20385;-85
2022/01/29 12:22:44;;;;;;;6.80;3.78;;;;;;;;;;5056512;28;20029;-87
2022/01/29 12:25:18;;;;;;;7.53;3.83;;;;;;;;;;5055611;28;20103;-86
2022/01/29 12:27:46;;;;;;;6.93;4.03;;;;;;;;;;5056230;28;20024;-85
2022/01/29 12:30:14;;;;;;;5.40;3.15;;;;;;;;;;5055944;28;20472;-85
2022/01/29 12:32:40;;;;;;;7.30;3.75;;;;;;;;;;5038846;28;20110;-86
2022/01/29 12:35:06;;;;;;;6.20;3.75;;;;;;;;;;5035896;28;20028;-85
2022/01/29 12:37:32;;;;;;;6.15;3.50;;;;;;;;;;5036188;28;20036;-86
2022/01/29 12:40:20;;;;;;;7.07;3.70;;;;;;;;;;5036577;28;20085;-85
2022/01/29 12:42:56;;;;;;;5.03;3.05;;;;;;;;;;5035781;28;20028;-85
2022/01/29 12:45:23;;;;;;;6.13;3.38;;;;;;;;;;5018044;28;20028;-83
2022/01/29 12:47:49;;;;;;;6.53;3.38;;;;;;;;;;5018683;28;20448;-84
2022/01/29 12:50:20;;;;;;;5.80;3.13;;;;;;;;;;5036760;28;20036;-86
2022/01/29 12:52:46;;;;;;;6.50;3.33;;;;;;;;;;5038969;28;20044;-86
2022/01/29 12:55:12;;;;;;;6.30;3.63;;;;;;;;;;5063197;28;20013;-87
2022/01/29 12:57:43;;;;;;;6.30;3.63;;;;;;;;;;5059140;28;20029;-87
2022/01/29 13:00:10;;;;;;;4.25;2.95;;;;;;;;;;5076614;28;20024;-86
2022/01/29 13:02:36;;;;;;;5.75;3.50;;;;;;;;;;5059733;28;20029;-83
2022/01/29 13:05:02;;;;;;;13.27;7.15;;;;;;;;;;5035561;28;20021;-84
2022/01/29 13:07:28;;;;;;;11.05;5.20;;;;;;;;;;5036264;28;20017;-84
2022/01/29 13:09:55;;;;;;;8.52;5.80;;;;;;;;;;5035274;28;20021;-84
2022/01/29 13:12:22;;;;;;;5.80;3.63;;;;;;;;;;5053326;28;20099;-84
2022/01/29 13:14:52;;;;;;;4.78;3.20;;;;;;;;;;5035555;28;20503;-84
2022/01/29 13:17:19;;;;;;;5.73;4.30;;;;;;;;;;5053684;28;20034;-85
2022/01/29 13:19:46;;;;;;;6.20;3.58;;;;;;;;;;5052298;28;20108;-84
2022/01/29 13:22:13;;;;;;;4.30;3.15;;;;;;;;;;5052639;28;20017;-82
2022/01/29 13:24:44;;;;;;;3.10;2.72;;;;;;;;;;5052923;28;20021;-85
2022/01/29 13:27:11;;;;;;;4.95;3.38;;;;;;;;;;5041373;28;20001;-82
2022/01/29 13:29:42;;;;;;;4.60;3.28;;;;;;;;;;5053521;28;20056;-82
2022/01/29 13:32:10;;;;;;;3.92;2.70;;;;;;;;;;5070640;28;20048;-81
2022/01/29 13:34:38;;;;;;;4.10;2.80;;;;;;;;;;5070603;28;20082;-83
2022/01/29 13:37:24;;;;;;;5.53;3.35;;;;;;;;;;5047259;28;20056;-84
2022/01/29 13:39:50;;;;;;;7.05;2.80;;;;;;;;;;5036576;28;20039;-86
2022/01/29 13:42:19;;;;;;;3.63;2.33;;;;;;;;;;5018829;28;20076;-84
2022/01/29 13:45:03;;;;;;;3.53;2.40;;;;;;;;;;5037323;28;20070;-85
2022/01/29 13:47:29;;;;;;;5.72;2.90;;;;;;;;;;5036817;28;20034;-86
2022/01/29 13:49:55;;;;;;;4.38;2.72;;;;;;;;;;5033173;28;20543;-84
2022/01/29 13:52:24;;;;;;;3.88;2.75;;;;;;;;;;5032541;28;20064;-83
2022/01/29 13:54:50;;;;;;;3.30;2.53;;;;;;;;;;5018568;28;20013;-84
2022/01/29 13:57:17;;;;;;;5.20;2.85;;;;;;;;;;5052712;28;20018;-83
2022/01/29 13:59:46;;;;;;;4.47;2.92;;;;;;;;;;5052670;28;20048;-82
2022/01/29 14:02:12;;;;;;;4.50;2.80;;;;;;;;;;5018022;28;20017;-83
2022/01/29 14:04:43;;;;;;;4.82;2.75;;;;;;;;;;5035056;28;20025;-84
2022/01/29 14:07:11;;;;;;;;;;;;;;;;;;5019494;28;20028;-84
2022/01/29 14:09:46;;;;;;;4.10;2.78;;;;;;;;;;5036812;28;19988;-83
2022/01/29 14:12:13;;;;;;;3.78;2.60;;;;;;;;;;5037323;28;20034;-83
2022/01/29 14:14:39;;;;;;;3.70;2.28;;;;;;;;;;5019232;28;20036;-84
2022/01/29 14:17:05;;;;;;;3.60;2.67;;;;;;;;;;5036329;28;20029;-85
2022/01/29 14:19:32;;;;;;;3.53;2.03;;;;;;;;;;5020239;28;20477;-83
2022/01/29 14:21:59;;;;;;;3.13;2.25;;;;;;;;;;5020166;28;20112;-85
2022/01/29 14:24:26;;;;;;;4.63;2.20;;;;;;;;;;5021341;28;20513;-82
2022/01/29 14:26:52;;;;;;;4.65;2.47;;;;;;;;;;5038895;28;20051;-86
2022/01/29 14:29:18;;;;;;;4.82;2.97;;;;;;;;;;5038546;28;20397;-85
2022/01/29 14:31:44;;;;;;;3.00;1.90;;;;;;;;;;5020104;28;20049;-86
2022/01/29 14:34:10;;;;;;;4.25;2.25;;;;;;;;;;5037762;28;20088;-83
2022/01/29 14:36:37;;;;;;;4.90;2.25;;;;;;;;;;5052965;28;20067;-84
2022/01/29 14:39:04;;;;;;;3.60;2.13;;;;;;;;;;5058245;28;20055;-82
2022/01/29 14:41:31;;;;;;;3.60;2.10;;;;;;;;;;5058662;28;20021;-83
2022/01/29 14:43:57;;;;;;;2.63;2.10;;;;;;;;;;5059400;28;20017;-83